sensor_id;sensor_type;location;lat;lon;timestamp;P1;durP1;ratioP1;P2;durP2;ratioP2
32445;SDS011;18899;50.748;7.102;2023-07-24T00:00:19;8.70;;;2.30;;
32445;SDS011;18899;50.748;7.102;2023-07-24T00:02:45;5.38;;;2.55;;
32445;SDS011;18899;50.748;7.102;2023-07-24T00:05:10;4.93;;;2.28;;
32445;SDS011;18899;50.748;7.102;2023-07-24T00:07:36;7.05;;;2.47;;
32445;SDS011;18899;50.748;7.102;2023-07-24T00:10:02;4.82;;;2.47;;
32445;SDS011;18899;50.748;7.102;2023-07-24T00:12:28;4.40;;;2.42;;
32445;SDS011;18899;50.748;7.102;2023-07-24T00:14:54;5.15;;;2.17;;
32445;SDS011;18899;50.748;7.102;2023-07-24T00:17:19;4.65;;;2.40;;
32445;SDS011;18899;50.748;7.102;2023-07-24T00:19:45;4.32;;;2.50;;
32445;SDS011;18899;50.748;7.102;2023-07-24T00:22:10;6.72;;;2.38;;
32445;SDS011;18899;50.748;7.102;2023-07-24T00:24:36;5.60;;;2.80;;
32445;SDS011;18899;50.748;7.102;2023-07-24T00:27:01;3.67;;;2.28;;
32445;SDS011;18899;50.748;7.102;2023-07-24T00:29:27;4.95;;;2.28;;
32445;SDS011;18899;50.748;7.102;2023-07-24T00:31:53;4.38;;;2.40;;
32445;SDS011;18899;50.748;7.102;2023-07-24T00:34:19;4.78;;;2.42;;
32445;SDS011;18899;50.748;7.102;2023-07-24T00:36:44;3.53;;;2.22;;
32445;SDS011;18899;50.748;7.102;2023-07-24T00:39:10;5.97;;;2.20;;
32445;SDS011;18899;50.748;7.102;2023-07-24T00:41:35;6.03;;;2.60;;
32445;SDS011;18899;50.748;7.102;2023-07-24T00:44:01;4.43;;;2.53;;
32445;SDS011;18899;50.748;7.102;2023-07-24T00:46:27;4.53;;;2.47;;
32445;SDS011;18899;50.748;7.102;2023-07-24T00:48:56;3.40;;;2.53;;
32445;SDS011;18899;50.748;7.102;2023-07-24T00:51:23;5.03;;;2.30;;
32445;SDS011;18899;50.748;7.102;2023-07-24T00:53:50;4.25;;;2.45;;
32445;SDS011;18899;50.748;7.102;2023-07-24T00:56:16;6.10;;;2.70;;
32445;SDS011;18899;50.748;7.102;2023-07-24T00:58:41;3.38;;;2.42;;
32445;SDS011;18899;50.748;7.102;2023-07-24T01:01:07;3.83;;;2.70;;
32445;SDS011;18899;50.748;7.102;2023-07-24T01:03:35;5.60;;;2.60;;
32445;SDS011;18899;50.748;7.102;2023-07-24T01:06:02;3.42;;;2.42;;
32445;SDS011;18899;50.748;7.102;2023-07-24T01:08:28;5.05;;;2.15;;
32445;SDS011;18899;50.748;7.102;2023-07-24T01:10:54;9.60;;;2.47;;
32445;SDS011;18899;50.748;7.102;2023-07-24T01:13:24;3.97;;;2.25;;
32445;SDS011;18899;50.748;7.102;2023-07-24T01:15:54;4.80;;;2.40;;
32445;SDS011;18899;50.748;7.102;2023-07-24T01:18:22;6.65;;;2.33;;
32445;SDS011;18899;50.748;7.102;2023-07-24T01:20:56;4.63;;;2.53;;
32445;SDS011;18899;50.748;7.102;2023-07-24T01:26:02;3.53;;;2.20;;
32445;SDS011;18899;50.748;7.102;2023-07-24T01:28:27;5.53;;;2.50;;
32445;SDS011;18899;50.748;7.102;2023-07-24T01:30:54;7.97;;;2.63;;
32445;SDS011;18899;50.748;7.102;2023-07-24T01:33:20;5.20;;;2.47;;
32445;SDS011;18899;50.748;7.102;2023-07-24T01:35:48;5.68;;;2.15;;
32445;SDS011;18899;50.748;7.102;2023-07-24T01:38:18;3.28;;;2.22;;
32445;SDS011;18899;50.748;7.102;2023-07-24T01:40:44;4.68;;;2.50;;
32445;SDS011;18899;50.748;7.102;2023-07-24T01:43:10;4.40;;;2.20;;
32445;SDS011;18899;50.748;7.102;2023-07-24T01:45:36;4.30;;;1.92;;
32445;SDS011;18899;50.748;7.102;2023-07-24T01:48:03;4.28;;;1.98;;
32445;SDS011;18899;50.748;7.102;2023-07-24T01:50:29;5.43;;;2.45;;
32445;SDS011;18899;50.748;7.102;2023-07-24T01:52:54;4.78;;;2.58;;
32445;SDS011;18899;50.748;7.102;2023-07-24T01:55:20;3.83;;;2.00;;
32445;SDS011;18899;50.748;7.102;2023-07-24T01:57:45;8.15;;;2.30;;
32445;SDS011;18899;50.748;7.102;2023-07-24T02:00:11;5.05;;;2.33;;
32445;SDS011;18899;50.748;7.102;2023-07-24T02:02:37;3.33;;;1.98;;
32445;SDS011;18899;50.748;7.102;2023-07-24T02:05:02;4.35;;;2.20;;
32445;SDS011;18899;50.748;7.102;2023-07-24T02:07:28;3.92;;;2.28;;
32445;SDS011;18899;50.748;7.102;2023-07-24T02:09:54;5.10;;;2.53;;
32445;SDS011;18899;50.748;7.102;2023-07-24T02:12:20;4.38;;;2.30;;
32445;SDS011;18899;50.748;7.102;2023-07-24T02:14:45;6.22;;;2.55;;
32445;SDS011;18899;50.748;7.102;2023-07-24T02:17:14;4.20;;;2.17;;
32445;SDS011;18899;50.748;7.102;2023-07-24T02:19:40;3.92;;;2.17;;
32445;SDS011;18899;50.748;7.102;2023-07-24T02:22:06;5.18;;;2.63;;
32445;SDS011;18899;50.748;7.102;2023-07-24T02:24:31;4.68;;;2.47;;
32445;SDS011;18899;50.748;7.102;2023-07-24T02:26:57;6.68;;;2.65;;
32445;SDS011;18899;50.748;7.102;2023-07-24T02:29:22;4.60;;;2.08;;
32445;SDS011;18899;50.748;7.102;2023-07-24T02:31:48;4.35;;;2.40;;
32445;SDS011;18899;50.748;7.102;2023-07-24T02:34:14;6.82;;;2.42;;
32445;SDS011;18899;50.748;7.102;2023-07-24T02:36:39;5.18;;;2.20;;
32445;SDS011;18899;50.748;7.102;2023-07-24T02:39:06;4.45;;;2.40;;
32445;SDS011;18899;50.748;7.102;2023-07-24T02:41:32;5.38;;;2.63;;
32445;SDS011;18899;50.748;7.102;2023-07-24T02:43:57;5.78;;;2.60;;
32445;SDS011;18899;50.748;7.102;2023-07-24T02:46:23;4.53;;;2.50;;
32445;SDS011;18899;50.748;7.102;2023-07-24T02:48:49;6.57;;;2.60;;
32445;SDS011;18899;50.748;7.102;2023-07-24T02:51:16;5.53;;;2.70;;
32445;SDS011;18899;50.748;7.102;2023-07-24T02:53:41;4.68;;;2.90;;
32445;SDS011;18899;50.748;7.102;2023-07-24T02:56:07;4.65;;;2.33;;
32445;SDS011;18899;50.748;7.102;2023-07-24T02:58:32;6.53;;;2.53;;
32445;SDS011;18899;50.748;7.102;2023-07-24T03:01:04;5.90;;;2.42;;
32445;SDS011;18899;50.748;7.102;2023-07-24T03:03:34;6.10;;;2.22;;
32445;SDS011;18899;50.748;7.102;2023-07-24T03:05:59;5.25;;;3.10;;
32445;SDS011;18899;50.748;7.102;2023-07-24T03:08:25;5.32;;;2.40;;
32445;SDS011;18899;50.748;7.102;2023-07-24T03:10:51;5.35;;;2.50;;
32445;SDS011;18899;50.748;7.102;2023-07-24T03:13:16;4.65;;;2.40;;
32445;SDS011;18899;50.748;7.102;2023-07-24T03:15:42;4.05;;;2.42;;
32445;SDS011;18899;50.748;7.102;2023-07-24T03:18:08;7.38;;;2.72;;
32445;SDS011;18899;50.748;7.102;2023-07-24T03:20:33;4.57;;;2.53;;
32445;SDS011;18899;50.748;7.102;2023-07-24T03:22:59;3.08;;;2.10;;
32445;SDS011;18899;50.748;7.102;2023-07-24T03:25:24;6.18;;;2.75;;
32445;SDS011;18899;50.748;7.102;2023-07-24T03:27:50;4.50;;;2.35;;
32445;SDS011;18899;50.748;7.102;2023-07-24T03:30:15;5.43;;;2.95;;
32445;SDS011;18899;50.748;7.102;2023-07-24T03:32:41;4.78;;;2.58;;
32445;SDS011;18899;50.748;7.102;2023-07-24T03:35:06;4.63;;;2.78;;
32445;SDS011;18899;50.748;7.102;2023-07-24T03:37:33;4.22;;;2.50;;
32445;SDS011;18899;50.748;7.102;2023-07-24T03:40:00;3.55;;;2.28;;
32445;SDS011;18899;50.748;7.102;2023-07-24T03:42:26;5.47;;;2.78;;
32445;SDS011;18899;50.748;7.102;2023-07-24T03:44:53;5.85;;;3.15;;
32445;SDS011;18899;50.748;7.102;2023-07-24T03:47:19;6.22;;;2.60;;
32445;SDS011;18899;50.748;7.102;2023-07-24T03:49:45;5.32;;;2.85;;
32445;SDS011;18899;50.748;7.102;2023-07-24T03:52:10;6.80;;;3.13;;
32445;SDS011;18899;50.748;7.102;2023-07-24T03:54:36;7.20;;;2.80;;
32445;SDS011;18899;50.748;7.102;2023-07-24T03:57:02;5.30;;;2.92;;
32445;SDS011;18899;50.748;7.102;2023-07-24T03:59:28;5.93;;;3.05;;
32445;SDS011;18899;50.748;7.102;2023-07-24T04:01:53;6.40;;;3.22;;
32445;SDS011;18899;50.748;7.102;2023-07-24T04:04:19;9.07;;;2.92;;
32445;SDS011;18899;50.748;7.102;2023-07-24T04:06:45;7.95;;;2.90;;
32445;SDS011;18899;50.748;7.102;2023-07-24T04:09:11;4.90;;;2.92;;
32445;SDS011;18899;50.748;7.102;2023-07-24T04:11:39;3.40;;;2.45;;
32445;SDS011;18899;50.748;7.102;2023-07-24T04:14:09;6.35;;;3.03;;
32445;SDS011;18899;50.748;7.102;2023-07-24T04:16:34;7.57;;;2.75;;
32445;SDS011;18899;50.748;7.102;2023-07-24T04:19:00;5.05;;;2.90;;
32445;SDS011;18899;50.748;7.102;2023-07-24T04:21:25;5.10;;;2.90;;
32445;SDS011;18899;50.748;7.102;2023-07-24T04:23:51;7.63;;;2.80;;
32445;SDS011;18899;50.748;7.102;2023-07-24T04:26:16;5.47;;;2.90;;
32445;SDS011;18899;50.748;7.102;2023-07-24T04:28:42;10.77;;;3.00;;
32445;SDS011;18899;50.748;7.102;2023-07-24T04:31:07;4.68;;;2.60;;
32445;SDS011;18899;50.748;7.102;2023-07-24T04:33:33;5.22;;;2.92;;
32445;SDS011;18899;50.748;7.102;2023-07-24T04:35:59;5.20;;;2.55;;
32445;SDS011;18899;50.748;7.102;2023-07-24T04:38:24;8.73;;;3.53;;
32445;SDS011;18899;50.748;7.102;2023-07-24T04:40:50;4.20;;;2.40;;
32445;SDS011;18899;50.748;7.102;2023-07-24T04:43:15;5.50;;;2.95;;
32445;SDS011;18899;50.748;7.102;2023-07-24T04:45:41;4.82;;;2.60;;
32445;SDS011;18899;50.748;7.102;2023-07-24T04:48:06;7.50;;;2.83;;
32445;SDS011;18899;50.748;7.102;2023-07-24T04:50:32;4.15;;;2.42;;
32445;SDS011;18899;50.748;7.102;2023-07-24T04:52:58;7.47;;;2.80;;
32445;SDS011;18899;50.748;7.102;2023-07-24T04:55:24;6.10;;;3.38;;
32445;SDS011;18899;50.748;7.102;2023-07-24T04:57:49;6.57;;;2.90;;
32445;SDS011;18899;50.748;7.102;2023-07-24T05:00:15;5.82;;;2.92;;
32445;SDS011;18899;50.748;7.102;2023-07-24T05:02:41;6.25;;;2.83;;
32445;SDS011;18899;50.748;7.102;2023-07-24T05:05:06;8.20;;;3.38;;
32445;SDS011;18899;50.748;7.102;2023-07-24T05:07:32;5.82;;;2.97;;
32445;SDS011;18899;50.748;7.102;2023-07-24T05:09:58;8.23;;;4.50;;
32445;SDS011;18899;50.748;7.102;2023-07-24T05:12:24;4.80;;;2.40;;
32445;SDS011;18899;50.748;7.102;2023-07-24T05:14:50;5.65;;;2.95;;
32445;SDS011;18899;50.748;7.102;2023-07-24T05:17:15;8.43;;;2.80;;
32445;SDS011;18899;50.748;7.102;2023-07-24T05:19:41;5.32;;;2.75;;
32445;SDS011;18899;50.748;7.102;2023-07-24T05:22:06;8.98;;;3.40;;
32445;SDS011;18899;50.748;7.102;2023-07-24T05:24:32;6.45;;;2.80;;
32445;SDS011;18899;50.748;7.102;2023-07-24T05:26:58;5.88;;;2.85;;
32445;SDS011;18899;50.748;7.102;2023-07-24T05:29:24;5.85;;;2.80;;
32445;SDS011;18899;50.748;7.102;2023-07-24T05:31:49;4.00;;;2.40;;
32445;SDS011;18899;50.748;7.102;2023-07-24T05:34:15;5.28;;;2.53;;
32445;SDS011;18899;50.748;7.102;2023-07-24T05:36:41;7.03;;;2.88;;
32445;SDS011;18899;50.748;7.102;2023-07-24T05:39:06;4.65;;;2.65;;
32445;SDS011;18899;50.748;7.102;2023-07-24T05:41:32;4.18;;;2.60;;
32445;SDS011;18899;50.748;7.102;2023-07-24T05:43:57;4.82;;;2.60;;
32445;SDS011;18899;50.748;7.102;2023-07-24T05:46:23;6.07;;;2.65;;
32445;SDS011;18899;50.748;7.102;2023-07-24T05:48:48;5.53;;;2.58;;
32445;SDS011;18899;50.748;7.102;2023-07-24T05:51:14;9.07;;;3.05;;
32445;SDS011;18899;50.748;7.102;2023-07-24T05:53:39;5.03;;;2.47;;
32445;SDS011;18899;50.748;7.102;2023-07-24T05:56:05;5.47;;;2.67;;
32445;SDS011;18899;50.748;7.102;2023-07-24T05:58:31;4.88;;;2.78;;
32445;SDS011;18899;50.748;7.102;2023-07-24T06:00:56;5.35;;;2.75;;
32445;SDS011;18899;50.748;7.102;2023-07-24T06:03:22;7.28;;;2.60;;
32445;SDS011;18899;50.748;7.102;2023-07-24T06:05:52;5.50;;;2.97;;
32445;SDS011;18899;50.748;7.102;2023-07-24T06:08:18;5.00;;;2.70;;
32445;SDS011;18899;50.748;7.102;2023-07-24T06:10:48;5.43;;;2.50;;
32445;SDS011;18899;50.748;7.102;2023-07-24T06:13:15;6.85;;;2.80;;
32445;SDS011;18899;50.748;7.102;2023-07-24T06:15:41;6.78;;;3.00;;
32445;SDS011;18899;50.748;7.102;2023-07-24T06:18:07;6.70;;;2.70;;
32445;SDS011;18899;50.748;7.102;2023-07-24T06:20:32;5.80;;;2.75;;
32445;SDS011;18899;50.748;7.102;2023-07-24T06:22:58;6.35;;;2.80;;
32445;SDS011;18899;50.748;7.102;2023-07-24T06:25:23;4.40;;;2.28;;
32445;SDS011;18899;50.748;7.102;2023-07-24T06:27:49;4.55;;;2.88;;
32445;SDS011;18899;50.748;7.102;2023-07-24T06:30:15;5.63;;;2.63;;
32445;SDS011;18899;50.748;7.102;2023-07-24T06:32:40;6.45;;;2.65;;
32445;SDS011;18899;50.748;7.102;2023-07-24T06:35:06;5.15;;;2.33;;
32445;SDS011;18899;50.748;7.102;2023-07-24T06:37:31;4.30;;;2.42;;
32445;SDS011;18899;50.748;7.102;2023-07-24T06:39:57;4.53;;;2.58;;
32445;SDS011;18899;50.748;7.102;2023-07-24T06:42:23;6.75;;;2.33;;
32445;SDS011;18899;50.748;7.102;2023-07-24T06:44:48;6.28;;;2.40;;
32445;SDS011;18899;50.748;7.102;2023-07-24T06:47:14;9.65;;;2.85;;
32445;SDS011;18899;50.748;7.102;2023-07-24T06:49:39;6.25;;;2.80;;
32445;SDS011;18899;50.748;7.102;2023-07-24T06:52:05;4.20;;;2.35;;
32445;SDS011;18899;50.748;7.102;2023-07-24T06:54:30;6.47;;;2.58;;
32445;SDS011;18899;50.748;7.102;2023-07-24T06:56:56;4.50;;;2.47;;
32445;SDS011;18899;50.748;7.102;2023-07-24T06:59:22;5.07;;;2.70;;
32445;SDS011;18899;50.748;7.102;2023-07-24T07:01:48;5.20;;;2.60;;
32445;SDS011;18899;50.748;7.102;2023-07-24T07:04:13;3.85;;;2.22;;
32445;SDS011;18899;50.748;7.102;2023-07-24T07:06:39;4.80;;;2.40;;
32445;SDS011;18899;50.748;7.102;2023-07-24T07:09:04;6.32;;;3.10;;
32445;SDS011;18899;50.748;7.102;2023-07-24T07:11:31;3.75;;;2.42;;
32445;SDS011;18899;50.748;7.102;2023-07-24T07:13:57;6.25;;;2.45;;
32445;SDS011;18899;50.748;7.102;2023-07-24T07:16:22;7.07;;;2.80;;
32445;SDS011;18899;50.748;7.102;2023-07-24T07:18:48;4.18;;;2.50;;
32445;SDS011;18899;50.748;7.102;2023-07-24T07:21:13;4.82;;;2.35;;
32445;SDS011;18899;50.748;7.102;2023-07-24T07:23:39;4.15;;;2.58;;
32445;SDS011;18899;50.748;7.102;2023-07-24T07:26:04;5.10;;;2.42;;
32445;SDS011;18899;50.748;7.102;2023-07-24T07:28:30;3.28;;;2.17;;
32445;SDS011;18899;50.748;7.102;2023-07-24T07:30:56;5.18;;;2.63;;
32445;SDS011;18899;50.748;7.102;2023-07-24T07:33:21;5.30;;;2.22;;
32445;SDS011;18899;50.748;7.102;2023-07-24T07:35:47;7.43;;;2.88;;
32445;SDS011;18899;50.748;7.102;2023-07-24T07:38:13;4.25;;;2.55;;
32445;SDS011;18899;50.748;7.102;2023-07-24T07:40:38;3.42;;;2.17;;
32445;SDS011;18899;50.748;7.102;2023-07-24T07:43:04;4.97;;;2.28;;
32445;SDS011;18899;50.748;7.102;2023-07-24T07:45:30;7.95;;;2.47;;
32445;SDS011;18899;50.748;7.102;2023-07-24T07:47:55;5.95;;;2.30;;
32445;SDS011;18899;50.748;7.102;2023-07-24T07:50:21;5.50;;;2.38;;
32445;SDS011;18899;50.748;7.102;2023-07-24T07:52:50;7.72;;;2.80;;
32445;SDS011;18899;50.748;7.102;2023-07-24T07:55:17;4.13;;;2.67;;
32445;SDS011;18899;50.748;7.102;2023-07-24T07:57:46;6.30;;;2.70;;
32445;SDS011;18899;50.748;7.102;2023-07-24T08:00:11;6.70;;;2.92;;
32445;SDS011;18899;50.748;7.102;2023-07-24T08:02:37;4.45;;;2.45;;
32445;SDS011;18899;50.748;7.102;2023-07-24T08:05:05;6.78;;;2.60;;
32445;SDS011;18899;50.748;7.102;2023-07-24T08:07:32;6.10;;;2.53;;
32445;SDS011;18899;50.748;7.102;2023-07-24T08:09:58;4.88;;;2.65;;
32445;SDS011;18899;50.748;7.102;2023-07-24T08:12:23;5.72;;;2.30;;
32445;SDS011;18899;50.748;7.102;2023-07-24T08:14:49;5.40;;;2.65;;
32445;SDS011;18899;50.748;7.102;2023-07-24T08:17:15;4.10;;;2.47;;
32445;SDS011;18899;50.748;7.102;2023-07-24T08:19:40;4.55;;;2.65;;
32445;SDS011;18899;50.748;7.102;2023-07-24T08:22:06;3.90;;;2.33;;
32445;SDS011;18899;50.748;7.102;2023-07-24T08:24:35;5.30;;;2.35;;
32445;SDS011;18899;50.748;7.102;2023-07-24T08:27:01;5.03;;;2.65;;
32445;SDS011;18899;50.748;7.102;2023-07-24T08:29:26;4.18;;;2.60;;
32445;SDS011;18899;50.748;7.102;2023-07-24T08:31:52;6.95;;;2.75;;
32445;SDS011;18899;50.748;7.102;2023-07-24T08:34:18;4.97;;;2.30;;
32445;SDS011;18899;50.748;7.102;2023-07-24T08:36:43;4.72;;;2.40;;
32445;SDS011;18899;50.748;7.102;2023-07-24T08:39:09;3.40;;;2.00;;
32445;SDS011;18899;50.748;7.102;2023-07-24T08:41:34;3.08;;;2.17;;
32445;SDS011;18899;50.748;7.102;2023-07-24T08:44:02;4.15;;;2.10;;
32445;SDS011;18899;50.748;7.102;2023-07-24T08:46:33;4.88;;;1.98;;
32445;SDS011;18899;50.748;7.102;2023-07-24T08:49:01;6.07;;;2.00;;
32445;SDS011;18899;50.748;7.102;2023-07-24T08:51:27;4.13;;;2.15;;
32445;SDS011;18899;50.748;7.102;2023-07-24T08:53:55;3.55;;;2.00;;
32445;SDS011;18899;50.748;7.102;2023-07-24T08:56:21;3.40;;;1.90;;
32445;SDS011;18899;50.748;7.102;2023-07-24T08:58:47;2.58;;;1.80;;
32445;SDS011;18899;50.748;7.102;2023-07-24T09:01:13;3.17;;;1.80;;
32445;SDS011;18899;50.748;7.102;2023-07-24T09:03:39;3.88;;;2.10;;
32445;SDS011;18899;50.748;7.102;2023-07-24T09:06:05;3.97;;;1.73;;
32445;SDS011;18899;50.748;7.102;2023-07-24T09:08:37;5.07;;;1.98;;
32445;SDS011;18899;50.748;7.102;2023-07-24T09:11:04;3.72;;;2.08;;
32445;SDS011;18899;50.748;7.102;2023-07-24T09:13:32;3.70;;;1.77;;
32445;SDS011;18899;50.748;7.102;2023-07-24T09:15:58;3.05;;;1.88;;
32445;SDS011;18899;50.748;7.102;2023-07-24T09:18:24;3.50;;;2.13;;
32445;SDS011;18899;50.748;7.102;2023-07-24T09:20:50;3.08;;;1.77;;
32445;SDS011;18899;50.748;7.102;2023-07-24T09:23:16;2.88;;;1.65;;
32445;SDS011;18899;50.748;7.102;2023-07-24T09:25:52;4.15;;;2.08;;
32445;SDS011;18899;50.748;7.102;2023-07-24T09:28:17;3.63;;;1.98;;
32445;SDS011;18899;50.748;7.102;2023-07-24T09:30:53;4.63;;;2.20;;
32445;SDS011;18899;50.748;7.102;2023-07-24T09:33:20;2.38;;;1.58;;
32445;SDS011;18899;50.748;7.102;2023-07-24T09:36:00;3.03;;;1.70;;
32445;SDS011;18899;50.748;7.102;2023-07-24T09:38:26;2.70;;;1.60;;
32445;SDS011;18899;50.748;7.102;2023-07-24T09:40:52;4.15;;;2.28;;
32445;SDS011;18899;50.748;7.102;2023-07-24T09:45:47;2.83;;;1.67;;
32445;SDS011;18899;50.748;7.102;2023-07-24T09:48:14;2.42;;;1.50;;
32445;SDS011;18899;50.748;7.102;2023-07-24T09:50:41;3.35;;;1.77;;
32445;SDS011;18899;50.748;7.102;2023-07-24T09:53:10;3.80;;;1.75;;
32445;SDS011;18899;50.748;7.102;2023-07-24T09:55:59;3.00;;;1.58;;
32445;SDS011;18899;50.748;7.102;2023-07-24T09:58:35;4.63;;;1.88;;
32445;SDS011;18899;50.748;7.102;2023-07-24T10:01:02;4.55;;;1.83;;
32445;SDS011;18899;50.748;7.102;2023-07-24T10:03:31;2.63;;;1.52;;
32445;SDS011;18899;50.748;7.102;2023-07-24T10:06:00;2.13;;;1.48;;
32445;SDS011;18899;50.748;7.102;2023-07-24T10:08:27;2.63;;;1.45;;
32445;SDS011;18899;50.748;7.102;2023-07-24T10:10:52;3.80;;;1.67;;
32445;SDS011;18899;50.748;7.102;2023-07-24T10:13:19;2.05;;;1.45;;
32445;SDS011;18899;50.748;7.102;2023-07-24T10:15:46;2.50;;;1.45;;
32445;SDS011;18899;50.748;7.102;2023-07-24T10:18:14;3.58;;;1.55;;
32445;SDS011;18899;50.748;7.102;2023-07-24T10:20:41;3.00;;;1.58;;
32445;SDS011;18899;50.748;7.102;2023-07-24T10:23:10;2.10;;;1.30;;
32445;SDS011;18899;50.748;7.102;2023-07-24T10:25:41;2.05;;;1.42;;
32445;SDS011;18899;50.748;7.102;2023-07-24T10:28:10;2.42;;;1.60;;
32445;SDS011;18899;50.748;7.102;2023-07-24T10:30:38;3.85;;;1.75;;
32445;SDS011;18899;50.748;7.102;2023-07-24T10:36:05;3.25;;;1.40;;
32445;SDS011;18899;50.748;7.102;2023-07-24T10:38:33;4.93;;;1.70;;
32445;SDS011;18899;50.748;7.102;2023-07-24T10:41:03;4.70;;;1.95;;
32445;SDS011;18899;50.748;7.102;2023-07-24T10:43:39;3.75;;;1.80;;
32445;SDS011;18899;50.748;7.102;2023-07-24T10:46:34;2.38;;;1.88;;
32445;SDS011;18899;50.748;7.102;2023-07-24T10:49:04;5.47;;;2.07;;
32445;SDS011;18899;50.748;7.102;2023-07-24T10:51:31;2.95;;;1.50;;
32445;SDS011;18899;50.748;7.102;2023-07-24T10:54:02;2.95;;;1.90;;
32445;SDS011;18899;50.748;7.102;2023-07-24T10:56:29;3.88;;;1.75;;
32445;SDS011;18899;50.748;7.102;2023-07-24T10:58:55;3.90;;;1.98;;
32445;SDS011;18899;50.748;7.102;2023-07-24T11:01:20;3.63;;;1.73;;
32445;SDS011;18899;50.748;7.102;2023-07-24T11:03:46;4.00;;;1.70;;
32445;SDS011;18899;50.748;7.102;2023-07-24T11:06:17;3.60;;;2.10;;
32445;SDS011;18899;50.748;7.102;2023-07-24T11:08:54;4.38;;;1.80;;
32445;SDS011;18899;50.748;7.102;2023-07-24T11:11:21;3.72;;;2.17;;
32445;SDS011;18899;50.748;7.102;2023-07-24T11:13:48;4.53;;;1.98;;
32445;SDS011;18899;50.748;7.102;2023-07-24T11:16:14;3.83;;;1.70;;
32445;SDS011;18899;50.748;7.102;2023-07-24T11:18:46;4.55;;;2.05;;
32445;SDS011;18899;50.748;7.102;2023-07-24T11:21:13;3.58;;;2.05;;
32445;SDS011;18899;50.748;7.102;2023-07-24T11:23:46;2.90;;;1.63;;
32445;SDS011;18899;50.748;7.102;2023-07-24T11:26:12;4.05;;;1.88;;
32445;SDS011;18899;50.748;7.102;2023-07-24T11:28:39;4.45;;;1.90;;
32445;SDS011;18899;50.748;7.102;2023-07-24T11:31:05;4.43;;;2.00;;
32445;SDS011;18899;50.748;7.102;2023-07-24T11:33:30;4.35;;;1.85;;
32445;SDS011;18899;50.748;7.102;2023-07-24T11:35:56;4.28;;;2.33;;
32445;SDS011;18899;50.748;7.102;2023-07-24T11:38:22;4.00;;;2.00;;
32445;SDS011;18899;50.748;7.102;2023-07-24T11:40:48;3.22;;;1.70;;
32445;SDS011;18899;50.748;7.102;2023-07-24T11:43:18;3.83;;;2.20;;
32445;SDS011;18899;50.748;7.102;2023-07-24T11:45:46;4.53;;;1.98;;
32445;SDS011;18899;50.748;7.102;2023-07-24T11:48:21;3.28;;;1.83;;
32445;SDS011;18899;50.748;7.102;2023-07-24T11:50:49;2.83;;;1.50;;
32445;SDS011;18899;50.748;7.102;2023-07-24T11:53:20;2.80;;;1.67;;
32445;SDS011;18899;50.748;7.102;2023-07-24T11:55:59;3.45;;;1.83;;
32445;SDS011;18899;50.748;7.102;2023-07-24T11:58:26;3.50;;;1.95;;
32445;SDS011;18899;50.748;7.102;2023-07-24T12:00:52;3.53;;;1.83;;
32445;SDS011;18899;50.748;7.102;2023-07-24T12:03:20;3.65;;;1.90;;
32445;SDS011;18899;50.748;7.102;2023-07-24T12:05:46;3.13;;;1.73;;
32445;SDS011;18899;50.748;7.102;2023-07-24T12:08:12;3.67;;;1.80;;
32445;SDS011;18899;50.748;7.102;2023-07-24T12:10:39;5.38;;;2.10;;
32445;SDS011;18899;50.748;7.102;2023-07-24T12:13:06;3.25;;;1.98;;
32445;SDS011;18899;50.748;7.102;2023-07-24T12:15:32;2.97;;;1.63;;
32445;SDS011;18899;50.748;7.102;2023-07-24T12:18:00;5.28;;;2.30;;
32445;SDS011;18899;50.748;7.102;2023-07-24T12:20:26;4.22;;;2.28;;
32445;SDS011;18899;50.748;7.102;2023-07-24T12:22:52;3.90;;;1.90;;
32445;SDS011;18899;50.748;7.102;2023-07-24T12:25:18;4.00;;;2.05;;
32445;SDS011;18899;50.748;7.102;2023-07-24T12:27:45;2.55;;;1.30;;
32445;SDS011;18899;50.748;7.102;2023-07-24T12:30:11;1.45;;;0.90;;
32445;SDS011;18899;50.748;7.102;2023-07-24T12:32:37;3.38;;;0.90;;
32445;SDS011;18899;50.748;7.102;2023-07-24T12:35:03;5.28;;;1.08;;
32445;SDS011;18899;50.748;7.102;2023-07-24T12:37:29;4.82;;;1.20;;
32445;SDS011;18899;50.748;7.102;2023-07-24T12:39:55;3.17;;;1.30;;
32445;SDS011;18899;50.748;7.102;2023-07-24T12:42:21;3.65;;;1.80;;
32445;SDS011;18899;50.748;7.102;2023-07-24T12:44:46;3.92;;;1.65;;
32445;SDS011;18899;50.748;7.102;2023-07-24T12:47:12;8.00;;;1.92;;
32445;SDS011;18899;50.748;7.102;2023-07-24T12:49:38;2.63;;;1.63;;
32445;SDS011;18899;50.748;7.102;2023-07-24T12:52:04;4.20;;;1.38;;
32445;SDS011;18899;50.748;7.102;2023-07-24T12:54:31;3.35;;;1.70;;
32445;SDS011;18899;50.748;7.102;2023-07-24T12:56:56;3.92;;;1.42;;
32445;SDS011;18899;50.748;7.102;2023-07-24T12:59:22;2.08;;;1.10;;
32445;SDS011;18899;50.748;7.102;2023-07-24T13:01:47;1.63;;;1.00;;
32445;SDS011;18899;50.748;7.102;2023-07-24T13:04:13;2.22;;;0.90;;
32445;SDS011;18899;50.748;7.102;2023-07-24T13:06:39;1.80;;;1.00;;
32445;SDS011;18899;50.748;7.102;2023-07-24T13:09:04;3.13;;;0.77;;
32445;SDS011;18899;50.748;7.102;2023-07-24T13:11:30;2.65;;;0.90;;
32445;SDS011;18899;50.748;7.102;2023-07-24T13:13:56;2.13;;;0.98;;
32445;SDS011;18899;50.748;7.102;2023-07-24T13:16:22;3.70;;;1.20;;
32445;SDS011;18899;50.748;7.102;2023-07-24T13:18:48;2.28;;;1.10;;
32445;SDS011;18899;50.748;7.102;2023-07-24T13:21:14;4.63;;;1.13;;
32445;SDS011;18899;50.748;7.102;2023-07-24T13:23:40;3.00;;;1.20;;
32445;SDS011;18899;50.748;7.102;2023-07-24T13:26:06;4.88;;;1.52;;
32445;SDS011;18899;50.748;7.102;2023-07-24T13:28:35;2.35;;;1.33;;
32445;SDS011;18899;50.748;7.102;2023-07-24T13:31:11;2.05;;;0.80;;
32445;SDS011;18899;50.748;7.102;2023-07-24T13:33:40;2.45;;;0.98;;
32445;SDS011;18899;50.748;7.102;2023-07-24T13:36:06;1.70;;;0.80;;
32445;SDS011;18899;50.748;7.102;2023-07-24T13:38:31;2.78;;;0.93;;
32445;SDS011;18899;50.748;7.102;2023-07-24T13:40:57;2.67;;;0.95;;
32445;SDS011;18899;50.748;7.102;2023-07-24T13:43:23;1.25;;;0.60;;
32445;SDS011;18899;50.748;7.102;2023-07-24T13:45:48;1.65;;;0.90;;
32445;SDS011;18899;50.748;7.102;2023-07-24T13:48:14;1.83;;;0.70;;
32445;SDS011;18899;50.748;7.102;2023-07-24T13:50:39;2.30;;;0.73;;
32445;SDS011;18899;50.748;7.102;2023-07-24T13:53:05;3.00;;;0.88;;
32445;SDS011;18899;50.748;7.102;2023-07-24T13:55:30;1.85;;;0.85;;
32445;SDS011;18899;50.748;7.102;2023-07-24T13:57:56;1.95;;;1.00;;
32445;SDS011;18899;50.748;7.102;2023-07-24T14:00:21;1.90;;;0.90;;
32445;SDS011;18899;50.748;7.102;2023-07-24T14:02:47;1.70;;;1.20;;
32445;SDS011;18899;50.748;7.102;2023-07-24T14:05:13;2.45;;;1.27;;
32445;SDS011;18899;50.748;7.102;2023-07-24T14:07:38;3.97;;;1.20;;
32445;SDS011;18899;50.748;7.102;2023-07-24T14:10:04;3.70;;;1.50;;
32445;SDS011;18899;50.748;7.102;2023-07-24T14:12:30;3.30;;;1.70;;
32445;SDS011;18899;50.748;7.102;2023-07-24T14:14:55;4.15;;;1.70;;
32445;SDS011;18899;50.748;7.102;2023-07-24T14:17:21;3.13;;;1.33;;
32445;SDS011;18899;50.748;7.102;2023-07-24T14:19:46;3.05;;;1.70;;
32445;SDS011;18899;50.748;7.102;2023-07-24T14:22:12;6.10;;;1.65;;
32445;SDS011;18899;50.748;7.102;2023-07-24T14:24:38;4.00;;;1.70;;
32445;SDS011;18899;50.748;7.102;2023-07-24T14:27:03;5.75;;;1.67;;
32445;SDS011;18899;50.748;7.102;2023-07-24T14:29:29;6.40;;;1.48;;
32445;SDS011;18899;50.748;7.102;2023-07-24T14:31:54;3.13;;;1.02;;
32445;SDS011;18899;50.748;7.102;2023-07-24T14:34:20;4.60;;;1.27;;
32445;SDS011;18899;50.748;7.102;2023-07-24T14:36:45;2.53;;;1.25;;
32445;SDS011;18899;50.748;7.102;2023-07-24T14:39:11;4.40;;;1.50;;
32445;SDS011;18899;50.748;7.102;2023-07-24T14:41:36;3.67;;;1.00;;
32445;SDS011;18899;50.748;7.102;2023-07-24T14:44:02;1.95;;;1.05;;
32445;SDS011;18899;50.748;7.102;2023-07-24T14:46:28;3.08;;;1.40;;
32445;SDS011;18899;50.748;7.102;2023-07-24T14:48:53;1.92;;;1.30;;
32445;SDS011;18899;50.748;7.102;2023-07-24T14:51:19;2.58;;;1.25;;